Brownsville, TN

7:44 AM CDT en Julio 24, 2016 (GMT -0500)
Denmark | | Change Station
Aviso en curso: Heat Advisory

Alt 394 ft 35.48 °N, 89.02 °W | Updated 15 minutes ago

Clear
Despejado
76.6 ° F
Sensación térmica 77 ° F
N
0.0
Viento Variable Viento desde SSE

Hoy
Alta -- | Baja -- ° F
--% Posibilidad de precipitaciones
Ayer
Alta -- | Baja -- ° F
Precip. -- pul
Presión 29.97 pul
Visibilidad 10.0 Millas
Nubes Despejado
Índice de calor 77 ° F
Punto de rocío 73 ° F
Humedad 89%
Precipitaciones 0.00 pul
Espesor de la nieve No disponible.
5:59 AM 8:07 PM
Gibosa menguante, 76% visible
METAR KMKL 241153Z 00000KT 10SM CLR 24/24 A2999 RMK AO2 SLP149 70001 T02440239 10250 20233 53008
Presión 29.97 pul
Visibilidad 10.0 Millas
Nubes Despejado
Índice de calor 77 ° F
Punto de rocío 73 ° F
Humedad 89%
Precipitaciones 0.00 pul
Espesor de la nieve No disponible.
5:59 AM 8:07 PM
Gibosa menguante, 76% visible
METAR KMKL 241153Z 00000KT 10SM CLR 24/24 A2999 RMK AO2 SLP149 70001 T02440239 10250 20233 53008

10-Day Weather Forecast

Almanac

Astronomía

Jul. 24, 2016 Salida Puesta
Hora real
Crepúsculo civil
Crepúsculo náutico
Crepúsculo astronómico
Luna
Horas de luz
Horas de luz
Tomorrow will be .
, % of the Moon is Illuminated

Extremos de hoy

Máximos del estado Bajos del estado

Community

WunderPhotos

Upload Photos

1,927,054 ¡fotos cargadas!

WunderBlog® & News

Nearby

Calidad del aire

  Calidad del aire Índice AQ Contaminante
Not available.

Grosos de nieve

Estación Profundido Altura

Actividad de terremotos

Ciudad Distance Mag. Tiempo y dato
Magnitud mínima muestra es 2,5.

Temperaturas de aguas costeras

Lugar Temperatura

Stations

Estaciones meteorológicas cercanas

Ubicación de la estación Temp. Vientos helados Punto de rocío Humedad Viento Precip. Alt Actualizado Tipo
                   

Watches & Warnings

Heat Advisory
Issued: 3:26 AM CDT Jul. 24, 2016 – National Weather Service

... Heat advisory remains in effect until 8 PM CDT this evening...

* heat indices... .103 to 108 degrees.

* Timing... from midday through early evening... and when
thunderstorms are not occurring.

* Impacts... prolonged periods outdoors may result in heat
related illnesses such as heat exhaustion or heat stroke.

Precautionary/preparedness actions...

A heat advisory means that a period of hot temperatures is
expected. The combination of hot temperatures and high humidity
will combine to create a situation in which heat illnesses are
possible. Drink plenty of fluids... stay in an air-conditioned
room... stay out of the sun... and check up on relatives and
neighbors.

Take extra precautions... if you work or spend time outside. When
possible... reschedule strenuous activities to early morning or
evening. Know the signs and symptoms of heat exhaustion and heat
stroke. Wear light weight and loose fitting clothing when
possible and drink plenty of water.